sensor_id;sensor_type;location;lat;lon;timestamp;P1;durP1;ratioP1;P2;durP2;ratioP2
12232;SDS011;6179;51.748;8.728;2023-08-06T00:00:56;3.70;;;1.83;;
12232;SDS011;6179;51.748;8.728;2023-08-06T00:06:56;3.27;;;2.07;;
12232;SDS011;6179;51.748;8.728;2023-08-06T00:12:57;2.30;;;1.43;;
12232;SDS011;6179;51.748;8.728;2023-08-06T00:18:57;3.40;;;1.63;;
12232;SDS011;6179;51.748;8.728;2023-08-06T00:24:58;2.70;;;1.33;;
12232;SDS011;6179;51.748;8.728;2023-08-06T00:30:59;1.20;;;1.10;;
12232;SDS011;6179;51.748;8.728;2023-08-06T00:36:59;3.13;;;1.87;;
12232;SDS011;6179;51.748;8.728;2023-08-06T00:43:00;1.30;;;1.00;;
12232;SDS011;6179;51.748;8.728;2023-08-06T00:49:00;2.70;;;1.47;;
12232;SDS011;6179;51.748;8.728;2023-08-06T00:55:01;2.23;;;1.50;;
12232;SDS011;6179;51.748;8.728;2023-08-06T01:01:02;1.00;;;1.00;;
12232;SDS011;6179;51.748;8.728;2023-08-06T01:13:23;2.00;;;1.50;;
12232;SDS011;6179;51.748;8.728;2023-08-06T01:19:30;1.40;;;1.23;;
12232;SDS011;6179;51.748;8.728;2023-08-06T01:25:34;1.00;;;1.00;;
12232;SDS011;6179;51.748;8.728;2023-08-06T01:31:51;2.70;;;1.63;;
12232;SDS011;6179;51.748;8.728;2023-08-06T01:37:53;4.03;;;1.67;;
12232;SDS011;6179;51.748;8.728;2023-08-06T01:43:56;1.13;;;0.90;;
12232;SDS011;6179;51.748;8.728;2023-08-06T01:49:56;2.53;;;1.33;;
12232;SDS011;6179;51.748;8.728;2023-08-06T01:55:57;1.13;;;1.00;;
12232;SDS011;6179;51.748;8.728;2023-08-06T02:01:58;1.77;;;1.27;;
12232;SDS011;6179;51.748;8.728;2023-08-06T02:07:58;6.20;;;1.17;;
12232;SDS011;6179;51.748;8.728;2023-08-06T02:13:59;8.20;;;1.10;;
12232;SDS011;6179;51.748;8.728;2023-08-06T02:20:00;1.30;;;1.20;;
12232;SDS011;6179;51.748;8.728;2023-08-06T02:26:01;1.50;;;1.40;;
12232;SDS011;6179;51.748;8.728;2023-08-06T02:32:02;1.43;;;1.23;;
12232;SDS011;6179;51.748;8.728;2023-08-06T02:38:03;1.00;;;0.93;;
12232;SDS011;6179;51.748;8.728;2023-08-06T02:44:04;2.10;;;0.93;;
12232;SDS011;6179;51.748;8.728;2023-08-06T02:50:05;1.23;;;1.13;;
12232;SDS011;6179;51.748;8.728;2023-08-06T02:56:06;3.60;;;1.57;;
12232;SDS011;6179;51.748;8.728;2023-08-06T03:02:06;1.13;;;1.03;;
12232;SDS011;6179;51.748;8.728;2023-08-06T03:08:07;1.93;;;1.40;;
12232;SDS011;6179;51.748;8.728;2023-08-06T03:14:08;2.63;;;1.20;;
12232;SDS011;6179;51.748;8.728;2023-08-06T03:20:10;2.40;;;2.20;;
12232;SDS011;6179;51.748;8.728;2023-08-06T03:26:10;3.13;;;2.00;;
12232;SDS011;6179;51.748;8.728;2023-08-06T03:32:11;3.07;;;1.57;;
12232;SDS011;6179;51.748;8.728;2023-08-06T03:38:12;14.93;;;2.03;;
12232;SDS011;6179;51.748;8.728;2023-08-06T03:44:12;5.10;;;3.37;;
12232;SDS011;6179;51.748;8.728;2023-08-06T03:50:13;12.83;;;2.20;;
12232;SDS011;6179;51.748;8.728;2023-08-06T03:56:13;3.10;;;2.47;;
12232;SDS011;6179;51.748;8.728;2023-08-06T04:02:14;4.87;;;3.20;;
12232;SDS011;6179;51.748;8.728;2023-08-06T04:08:15;3.60;;;2.30;;
12232;SDS011;6179;51.748;8.728;2023-08-06T04:14:15;3.80;;;2.70;;
12232;SDS011;6179;51.748;8.728;2023-08-06T04:20:16;2.33;;;2.13;;
12232;SDS011;6179;51.748;8.728;2023-08-06T04:26:16;8.40;;;3.13;;
12232;SDS011;6179;51.748;8.728;2023-08-06T04:32:17;2.53;;;2.33;;
12232;SDS011;6179;51.748;8.728;2023-08-06T04:38:19;3.40;;;2.40;;
12232;SDS011;6179;51.748;8.728;2023-08-06T04:44:20;7.17;;;3.80;;
12232;SDS011;6179;51.748;8.728;2023-08-06T04:50:21;2.43;;;2.20;;
12232;SDS011;6179;51.748;8.728;2023-08-06T04:56:21;2.97;;;1.97;;
12232;SDS011;6179;51.748;8.728;2023-08-06T05:02:22;3.47;;;2.13;;
12232;SDS011;6179;51.748;8.728;2023-08-06T05:08:22;2.60;;;1.67;;
12232;SDS011;6179;51.748;8.728;2023-08-06T05:14:23;2.13;;;1.90;;
12232;SDS011;6179;51.748;8.728;2023-08-06T05:20:24;4.17;;;2.40;;
12232;SDS011;6179;51.748;8.728;2023-08-06T05:26:24;4.43;;;2.70;;
12232;SDS011;6179;51.748;8.728;2023-08-06T05:32:25;2.07;;;1.87;;
12232;SDS011;6179;51.748;8.728;2023-08-06T05:38:26;3.40;;;3.00;;
12232;SDS011;6179;51.748;8.728;2023-08-06T05:44:27;8.50;;;2.50;;
12232;SDS011;6179;51.748;8.728;2023-08-06T05:50:27;3.80;;;2.77;;
12232;SDS011;6179;51.748;8.728;2023-08-06T05:56:28;5.77;;;3.50;;
12232;SDS011;6179;51.748;8.728;2023-08-06T06:02:28;3.50;;;2.60;;
12232;SDS011;6179;51.748;8.728;2023-08-06T06:08:29;2.30;;;1.80;;
12232;SDS011;6179;51.748;8.728;2023-08-06T06:14:30;2.37;;;1.90;;
12232;SDS011;6179;51.748;8.728;2023-08-06T06:20:31;2.40;;;2.07;;
12232;SDS011;6179;51.748;8.728;2023-08-06T06:26:33;2.73;;;2.53;;
12232;SDS011;6179;51.748;8.728;2023-08-06T06:32:33;1.73;;;1.20;;
12232;SDS011;6179;51.748;8.728;2023-08-06T06:38:34;3.47;;;1.83;;
12232;SDS011;6179;51.748;8.728;2023-08-06T06:44:35;5.20;;;1.43;;
12232;SDS011;6179;51.748;8.728;2023-08-06T06:50:36;3.90;;;1.23;;
12232;SDS011;6179;51.748;8.728;2023-08-06T06:56:36;3.50;;;1.87;;
12232;SDS011;6179;51.748;8.728;2023-08-06T07:02:37;8.07;;;2.10;;
12232;SDS011;6179;51.748;8.728;2023-08-06T07:08:38;1.73;;;1.27;;
12232;SDS011;6179;51.748;8.728;2023-08-06T07:14:38;3.30;;;1.40;;
12232;SDS011;6179;51.748;8.728;2023-08-06T07:20:39;1.53;;;1.27;;
12232;SDS011;6179;51.748;8.728;2023-08-06T07:26:39;1.50;;;0.90;;
12232;SDS011;6179;51.748;8.728;2023-08-06T07:32:40;0.70;;;0.70;;
12232;SDS011;6179;51.748;8.728;2023-08-06T07:38:41;1.33;;;1.10;;
12232;SDS011;6179;51.748;8.728;2023-08-06T07:44:41;2.73;;;1.10;;
12232;SDS011;6179;51.748;8.728;2023-08-06T07:50:42;0.80;;;0.80;;
12232;SDS011;6179;51.748;8.728;2023-08-06T07:56:50;0.83;;;0.80;;
12232;SDS011;6179;51.748;8.728;2023-08-06T08:02:50;3.00;;;1.10;;
12232;SDS011;6179;51.748;8.728;2023-08-06T08:08:51;3.07;;;0.87;;
12232;SDS011;6179;51.748;8.728;2023-08-06T08:14:52;0.93;;;0.93;;
12232;SDS011;6179;51.748;8.728;2023-08-06T08:20:52;1.00;;;0.90;;
12232;SDS011;6179;51.748;8.728;2023-08-06T08:26:53;0.90;;;0.90;;
12232;SDS011;6179;51.748;8.728;2023-08-06T08:32:54;3.23;;;1.00;;
12232;SDS011;6179;51.748;8.728;2023-08-06T08:38:54;1.07;;;0.87;;
12232;SDS011;6179;51.748;8.728;2023-08-06T08:44:55;0.93;;;0.70;;
12232;SDS011;6179;51.748;8.728;2023-08-06T08:50:56;0.97;;;0.80;;
12232;SDS011;6179;51.748;8.728;2023-08-06T08:56:58;1.50;;;1.00;;
12232;SDS011;6179;51.748;8.728;2023-08-06T09:02:59;1.27;;;0.70;;
12232;SDS011;6179;51.748;8.728;2023-08-06T09:09:01;2.70;;;0.70;;
12232;SDS011;6179;51.748;8.728;2023-08-06T09:15:12;0.70;;;0.70;;
12232;SDS011;6179;51.748;8.728;2023-08-06T09:21:14;2.73;;;0.77;;
12232;SDS011;6179;51.748;8.728;2023-08-06T09:27:17;2.57;;;0.70;;
12232;SDS011;6179;51.748;8.728;2023-08-06T09:33:18;1.00;;;0.70;;
12232;SDS011;6179;51.748;8.728;2023-08-06T09:39:27;1.00;;;0.80;;
12232;SDS011;6179;51.748;8.728;2023-08-06T09:51:34;0.93;;;0.63;;
12232;SDS011;6179;51.748;8.728;2023-08-06T09:57:35;0.73;;;0.73;;
12232;SDS011;6179;51.748;8.728;2023-08-06T10:03:36;1.13;;;1.10;;
12232;SDS011;6179;51.748;8.728;2023-08-06T10:09:38;0.93;;;0.57;;
12232;SDS011;6179;51.748;8.728;2023-08-06T10:15:38;1.00;;;0.60;;
12232;SDS011;6179;51.748;8.728;2023-08-06T10:21:40;0.70;;;0.60;;
12232;SDS011;6179;51.748;8.728;2023-08-06T10:27:41;2.33;;;1.07;;
12232;SDS011;6179;51.748;8.728;2023-08-06T10:33:54;0.70;;;0.57;;
12232;SDS011;6179;51.748;8.728;2023-08-06T10:39:55;2.10;;;0.90;;
12232;SDS011;6179;51.748;8.728;2023-08-06T10:45:56;2.03;;;1.00;;
12232;SDS011;6179;51.748;8.728;2023-08-06T10:51:58;6.97;;;0.70;;
12232;SDS011;6179;51.748;8.728;2023-08-06T10:57:58;0.57;;;0.57;;
12232;SDS011;6179;51.748;8.728;2023-08-06T11:04:01;1.30;;;0.70;;
12232;SDS011;6179;51.748;8.728;2023-08-06T11:10:06;0.70;;;0.50;;
12232;SDS011;6179;51.748;8.728;2023-08-06T11:16:09;1.47;;;0.60;;
12232;SDS011;6179;51.748;8.728;2023-08-06T11:22:10;0.53;;;0.53;;
12232;SDS011;6179;51.748;8.728;2023-08-06T11:28:11;0.80;;;0.80;;
12232;SDS011;6179;51.748;8.728;2023-08-06T11:34:12;1.30;;;0.53;;
12232;SDS011;6179;51.748;8.728;2023-08-06T11:40:14;1.23;;;0.73;;
12232;SDS011;6179;51.748;8.728;2023-08-06T11:46:15;0.90;;;0.53;;
12232;SDS011;6179;51.748;8.728;2023-08-06T11:52:17;1.43;;;0.90;;
12232;SDS011;6179;51.748;8.728;2023-08-06T11:58:23;1.43;;;0.67;;
12232;SDS011;6179;51.748;8.728;2023-08-06T12:04:23;0.60;;;0.60;;
12232;SDS011;6179;51.748;8.728;2023-08-06T12:10:25;0.80;;;0.60;;
12232;SDS011;6179;51.748;8.728;2023-08-06T12:16:27;1.20;;;0.60;;
12232;SDS011;6179;51.748;8.728;2023-08-06T12:22:28;0.70;;;0.60;;
12232;SDS011;6179;51.748;8.728;2023-08-06T12:28:31;0.73;;;0.67;;
12232;SDS011;6179;51.748;8.728;2023-08-06T12:34:32;0.70;;;0.60;;
12232;SDS011;6179;51.748;8.728;2023-08-06T12:40:32;1.60;;;0.90;;
12232;SDS011;6179;51.748;8.728;2023-08-06T12:46:33;3.40;;;0.70;;
12232;SDS011;6179;51.748;8.728;2023-08-06T12:52:34;2.63;;;0.97;;
12232;SDS011;6179;51.748;8.728;2023-08-06T12:58:34;0.70;;;0.60;;
12232;SDS011;6179;51.748;8.728;2023-08-06T13:04:35;1.53;;;0.60;;
12232;SDS011;6179;51.748;8.728;2023-08-06T13:10:35;1.80;;;0.50;;
12232;SDS011;6179;51.748;8.728;2023-08-06T13:16:37;0.50;;;0.50;;
12232;SDS011;6179;51.748;8.728;2023-08-06T13:22:41;0.70;;;0.50;;
12232;SDS011;6179;51.748;8.728;2023-08-06T13:28:41;0.90;;;0.50;;
12232;SDS011;6179;51.748;8.728;2023-08-06T13:34:42;0.67;;;0.67;;
12232;SDS011;6179;51.748;8.728;2023-08-06T13:40:43;0.50;;;0.50;;
12232;SDS011;6179;51.748;8.728;2023-08-06T13:46:44;0.90;;;0.70;;
12232;SDS011;6179;51.748;8.728;2023-08-06T13:52:45;0.80;;;0.60;;
12232;SDS011;6179;51.748;8.728;2023-08-06T13:58:45;1.13;;;0.73;;
12232;SDS011;6179;51.748;8.728;2023-08-06T14:04:46;0.40;;;0.40;;
12232;SDS011;6179;51.748;8.728;2023-08-06T14:10:46;0.40;;;0.40;;
12232;SDS011;6179;51.748;8.728;2023-08-06T14:16:47;0.40;;;0.40;;
12232;SDS011;6179;51.748;8.728;2023-08-06T14:22:48;1.30;;;0.57;;
12232;SDS011;6179;51.748;8.728;2023-08-06T14:28:48;0.83;;;0.60;;
12232;SDS011;6179;51.748;8.728;2023-08-06T14:34:49;2.13;;;0.80;;
12232;SDS011;6179;51.748;8.728;2023-08-06T14:40:49;2.10;;;0.70;;
12232;SDS011;6179;51.748;8.728;2023-08-06T14:46:50;2.43;;;0.77;;
12232;SDS011;6179;51.748;8.728;2023-08-06T14:52:51;1.00;;;0.77;;
12232;SDS011;6179;51.748;8.728;2023-08-06T14:58:51;1.27;;;0.73;;
12232;SDS011;6179;51.748;8.728;2023-08-06T15:04:52;5.87;;;1.20;;
12232;SDS011;6179;51.748;8.728;2023-08-06T15:10:53;2.80;;;0.70;;
12232;SDS011;6179;51.748;8.728;2023-08-06T15:16:53;2.73;;;0.97;;
12232;SDS011;6179;51.748;8.728;2023-08-06T15:22:56;0.53;;;0.53;;
12232;SDS011;6179;51.748;8.728;2023-08-06T15:28:58;0.70;;;0.60;;
12232;SDS011;6179;51.748;8.728;2023-08-06T15:34:58;0.93;;;0.70;;
12232;SDS011;6179;51.748;8.728;2023-08-06T15:40:59;0.70;;;0.70;;
12232;SDS011;6179;51.748;8.728;2023-08-06T15:47:00;0.87;;;0.67;;
12232;SDS011;6179;51.748;8.728;2023-08-06T15:53:00;8.33;;;1.07;;
12232;SDS011;6179;51.748;8.728;2023-08-06T15:59:20;1.30;;;1.00;;
12232;SDS011;6179;51.748;8.728;2023-08-06T16:05:24;3.57;;;1.20;;
12232;SDS011;6179;51.748;8.728;2023-08-06T16:11:25;5.30;;;0.63;;
12232;SDS011;6179;51.748;8.728;2023-08-06T16:17:26;1.13;;;0.60;;
12232;SDS011;6179;51.748;8.728;2023-08-06T16:23:27;0.63;;;0.63;;
12232;SDS011;6179;51.748;8.728;2023-08-06T16:29:28;0.60;;;0.60;;
12232;SDS011;6179;51.748;8.728;2023-08-06T16:35:29;0.83;;;0.63;;
12232;SDS011;6179;51.748;8.728;2023-08-06T16:41:29;0.50;;;0.47;;
12232;SDS011;6179;51.748;8.728;2023-08-06T16:47:30;0.43;;;0.43;;
12232;SDS011;6179;51.748;8.728;2023-08-06T16:53:31;0.60;;;0.57;;
12232;SDS011;6179;51.748;8.728;2023-08-06T16:59:32;0.60;;;0.60;;
12232;SDS011;6179;51.748;8.728;2023-08-06T17:05:32;0.60;;;0.60;;
12232;SDS011;6179;51.748;8.728;2023-08-06T17:11:33;0.77;;;0.67;;
12232;SDS011;6179;51.748;8.728;2023-08-06T17:17:34;2.13;;;0.63;;
12232;SDS011;6179;51.748;8.728;2023-08-06T17:23:34;1.77;;;1.00;;
12232;SDS011;6179;51.748;8.728;2023-08-06T17:29:35;0.80;;;0.67;;
12232;SDS011;6179;51.748;8.728;2023-08-06T17:35:36;0.70;;;0.63;;
12232;SDS011;6179;51.748;8.728;2023-08-06T17:41:40;1.00;;;0.63;;
12232;SDS011;6179;51.748;8.728;2023-08-06T17:47:40;0.83;;;0.70;;
12232;SDS011;6179;51.748;8.728;2023-08-06T17:53:41;2.20;;;0.67;;
12232;SDS011;6179;51.748;8.728;2023-08-06T17:59:42;0.47;;;0.47;;
12232;SDS011;6179;51.748;8.728;2023-08-06T18:05:42;0.57;;;0.50;;
12232;SDS011;6179;51.748;8.728;2023-08-06T18:11:43;1.90;;;0.70;;
12232;SDS011;6179;51.748;8.728;2023-08-06T18:17:43;4.90;;;0.83;;
12232;SDS011;6179;51.748;8.728;2023-08-06T18:23:47;4.63;;;1.07;;
12232;SDS011;6179;51.748;8.728;2023-08-06T18:29:47;2.70;;;1.03;;
12232;SDS011;6179;51.748;8.728;2023-08-06T18:35:48;1.30;;;0.90;;
12232;SDS011;6179;51.748;8.728;2023-08-06T18:41:48;2.07;;;1.23;;
12232;SDS011;6179;51.748;8.728;2023-08-06T18:47:50;4.43;;;1.80;;
12232;SDS011;6179;51.748;8.728;2023-08-06T18:53:51;1.07;;;0.87;;
12232;SDS011;6179;51.748;8.728;2023-08-06T18:59:51;2.53;;;1.67;;
12232;SDS011;6179;51.748;8.728;2023-08-06T19:05:57;7.53;;;0.80;;
12232;SDS011;6179;51.748;8.728;2023-08-06T19:12:00;2.70;;;1.43;;
12232;SDS011;6179;51.748;8.728;2023-08-06T19:18:01;3.67;;;2.00;;
12232;SDS011;6179;51.748;8.728;2023-08-06T19:24:02;5.70;;;1.63;;
12232;SDS011;6179;51.748;8.728;2023-08-06T19:30:03;3.47;;;1.80;;
12232;SDS011;6179;51.748;8.728;2023-08-06T19:36:04;2.60;;;2.10;;
12232;SDS011;6179;51.748;8.728;2023-08-06T19:42:05;3.80;;;1.90;;
12232;SDS011;6179;51.748;8.728;2023-08-06T19:48:06;3.80;;;1.37;;
12232;SDS011;6179;51.748;8.728;2023-08-06T19:54:07;2.70;;;1.60;;
12232;SDS011;6179;51.748;8.728;2023-08-06T20:00:07;5.17;;;1.80;;
12232;SDS011;6179;51.748;8.728;2023-08-06T20:06:09;4.70;;;1.90;;
12232;SDS011;6179;51.748;8.728;2023-08-06T20:12:10;1.93;;;1.40;;
12232;SDS011;6179;51.748;8.728;2023-08-06T20:18:11;2.30;;;1.23;;
12232;SDS011;6179;51.748;8.728;2023-08-06T20:24:12;2.27;;;0.97;;
12232;SDS011;6179;51.748;8.728;2023-08-06T20:30:13;3.20;;;1.67;;
12232;SDS011;6179;51.748;8.728;2023-08-06T20:36:13;1.53;;;0.90;;
12232;SDS011;6179;51.748;8.728;2023-08-06T20:42:14;0.77;;;0.77;;
12232;SDS011;6179;51.748;8.728;2023-08-06T20:48:16;3.33;;;1.47;;
12232;SDS011;6179;51.748;8.728;2023-08-06T20:54:16;2.00;;;1.20;;
12232;SDS011;6179;51.748;8.728;2023-08-06T21:00:17;4.00;;;2.73;;
12232;SDS011;6179;51.748;8.728;2023-08-06T21:06:18;4.53;;;2.50;;
12232;SDS011;6179;51.748;8.728;2023-08-06T21:12:19;3.50;;;2.07;;
12232;SDS011;6179;51.748;8.728;2023-08-06T21:18:19;2.30;;;1.47;;
12232;SDS011;6179;51.748;8.728;2023-08-06T21:24:20;2.10;;;1.37;;
12232;SDS011;6179;51.748;8.728;2023-08-06T21:30:20;1.77;;;1.27;;
12232;SDS011;6179;51.748;8.728;2023-08-06T21:36:21;5.40;;;1.63;;
12232;SDS011;6179;51.748;8.728;2023-08-06T21:42:24;3.73;;;1.40;;
12232;SDS011;6179;51.748;8.728;2023-08-06T21:48:24;3.07;;;1.00;;
12232;SDS011;6179;51.748;8.728;2023-08-06T21:54:25;4.73;;;1.10;;
12232;SDS011;6179;51.748;8.728;2023-08-06T22:00:26;2.67;;;1.97;;
12232;SDS011;6179;51.748;8.728;2023-08-06T22:06:26;1.83;;;1.40;;
12232;SDS011;6179;51.748;8.728;2023-08-06T22:12:27;7.83;;;3.20;;
12232;SDS011;6179;51.748;8.728;2023-08-06T22:18:28;6.90;;;3.27;;
12232;SDS011;6179;51.748;8.728;2023-08-06T22:24:28;8.10;;;2.90;;
12232;SDS011;6179;51.748;8.728;2023-08-06T22:30:29;4.47;;;2.00;;
12232;SDS011;6179;51.748;8.728;2023-08-06T22:36:30;10.60;;;2.40;;
12232;SDS011;6179;51.748;8.728;2023-08-06T22:42:30;10.10;;;1.23;;
12232;SDS011;6179;51.748;8.728;2023-08-06T22:48:31;1.83;;;1.23;;
12232;SDS011;6179;51.748;8.728;2023-08-06T22:54:32;1.83;;;1.23;;
12232;SDS011;6179;51.748;8.728;2023-08-06T23:00:33;0.70;;;0.70;;
12232;SDS011;6179;51.748;8.728;2023-08-06T23:06:33;0.83;;;0.83;;
12232;SDS011;6179;51.748;8.728;2023-08-06T23:12:34;3.50;;;0.60;;
12232;SDS011;6179;51.748;8.728;2023-08-06T23:18:34;2.07;;;0.60;;
12232;SDS011;6179;51.748;8.728;2023-08-06T23:24:35;3.07;;;0.60;;
12232;SDS011;6179;51.748;8.728;2023-08-06T23:30:36;2.50;;;0.87;;
12232;SDS011;6179;51.748;8.728;2023-08-06T23:36:36;0.43;;;0.30;;
12232;SDS011;6179;51.748;8.728;2023-08-06T23:42:37;3.87;;;0.50;;
12232;SDS011;6179;51.748;8.728;2023-08-06T23:48:37;3.70;;;0.60;;
12232;SDS011;6179;51.748;8.728;2023-08-06T23:54:38;1.17;;;0.83;;
